sensor_id;sensor_type;location;lat;lon;timestamp;P1;durP1;ratioP1;P2;durP2;ratioP2
79126;SDS011;68528;48.814;8.904;2023-09-12T00:00:16;9.10;;;5.60;;
79126;SDS011;68528;48.814;8.904;2023-09-12T00:02:42;8.50;;;5.75;;
79126;SDS011;68528;48.814;8.904;2023-09-12T00:05:07;9.38;;;4.90;;
79126;SDS011;68528;48.814;8.904;2023-09-12T00:07:58;8.32;;;5.55;;
79126;SDS011;68528;48.814;8.904;2023-09-12T00:10:24;10.63;;;4.80;;
79126;SDS011;68528;48.814;8.904;2023-09-12T00:12:51;10.30;;;5.07;;
79126;SDS011;68528;48.814;8.904;2023-09-12T00:15:16;8.40;;;5.15;;
79126;SDS011;68528;48.814;8.904;2023-09-12T00:17:42;9.15;;;5.75;;
79126;SDS011;68528;48.814;8.904;2023-09-12T00:20:07;9.27;;;6.13;;
79126;SDS011;68528;48.814;8.904;2023-09-12T00:22:34;8.30;;;4.90;;
79126;SDS011;68528;48.814;8.904;2023-09-12T00:25:00;10.00;;;5.97;;
79126;SDS011;68528;48.814;8.904;2023-09-12T00:28:17;10.00;;;6.07;;
79126;SDS011;68528;48.814;8.904;2023-09-12T00:30:45;10.23;;;5.38;;
79126;SDS011;68528;48.814;8.904;2023-09-12T00:33:11;9.25;;;5.53;;
79126;SDS011;68528;48.814;8.904;2023-09-12T00:35:36;9.15;;;5.60;;
79126;SDS011;68528;48.814;8.904;2023-09-12T00:38:02;8.05;;;5.00;;
79126;SDS011;68528;48.814;8.904;2023-09-12T00:40:28;7.85;;;5.60;;
79126;SDS011;68528;48.814;8.904;2023-09-12T00:42:53;8.25;;;5.45;;
79126;SDS011;68528;48.814;8.904;2023-09-12T00:45:20;9.60;;;6.03;;
79126;SDS011;68528;48.814;8.904;2023-09-12T00:47:46;9.63;;;6.55;;
79126;SDS011;68528;48.814;8.904;2023-09-12T00:50:13;8.20;;;5.78;;
79126;SDS011;68528;48.814;8.904;2023-09-12T00:52:40;8.38;;;5.60;;
79126;SDS011;68528;48.814;8.904;2023-09-12T00:55:08;7.90;;;5.28;;
79126;SDS011;68528;48.814;8.904;2023-09-12T00:57:34;11.07;;;6.07;;
79126;SDS011;68528;48.814;8.904;2023-09-12T01:00:01;8.77;;;5.30;;
79126;SDS011;68528;48.814;8.904;2023-09-12T01:02:41;9.82;;;5.93;;
79126;SDS011;68528;48.814;8.904;2023-09-12T01:05:08;10.25;;;5.53;;
79126;SDS011;68528;48.814;8.904;2023-09-12T01:07:37;8.23;;;5.53;;
79126;SDS011;68528;48.814;8.904;2023-09-12T01:13:09;7.38;;;5.63;;
79126;SDS011;68528;48.814;8.904;2023-09-12T01:15:35;9.45;;;5.80;;
79126;SDS011;68528;48.814;8.904;2023-09-12T01:18:01;8.75;;;6.20;;
79126;SDS011;68528;48.814;8.904;2023-09-12T01:20:33;8.00;;;5.07;;
79126;SDS011;68528;48.814;8.904;2023-09-12T01:23:06;10.38;;;5.70;;
79126;SDS011;68528;48.814;8.904;2023-09-12T01:28:29;8.63;;;5.40;;
79126;SDS011;68528;48.814;8.904;2023-09-12T01:31:00;7.28;;;5.85;;
79126;SDS011;68528;48.814;8.904;2023-09-12T01:33:27;8.95;;;5.65;;
79126;SDS011;68528;48.814;8.904;2023-09-12T01:35:53;8.60;;;5.90;;
79126;SDS011;68528;48.814;8.904;2023-09-12T01:38:19;10.18;;;6.28;;
79126;SDS011;68528;48.814;8.904;2023-09-12T01:40:50;7.38;;;5.28;;
79126;SDS011;68528;48.814;8.904;2023-09-12T01:44:01;9.05;;;5.20;;
79126;SDS011;68528;48.814;8.904;2023-09-12T01:46:28;10.07;;;5.90;;
79126;SDS011;68528;48.814;8.904;2023-09-12T01:48:56;10.15;;;6.45;;
79126;SDS011;68528;48.814;8.904;2023-09-12T01:51:23;13.35;;;7.28;;
79126;SDS011;68528;48.814;8.904;2023-09-12T01:53:52;10.15;;;6.55;;
79126;SDS011;68528;48.814;8.904;2023-09-12T01:56:20;10.32;;;5.93;;
79126;SDS011;68528;48.814;8.904;2023-09-12T01:58:50;8.60;;;5.47;;
79126;SDS011;68528;48.814;8.904;2023-09-12T02:01:17;11.23;;;6.00;;
79126;SDS011;68528;48.814;8.904;2023-09-12T02:03:43;6.75;;;5.55;;
79126;SDS011;68528;48.814;8.904;2023-09-12T02:06:09;11.77;;;5.85;;
79126;SDS011;68528;48.814;8.904;2023-09-12T02:08:36;8.32;;;6.28;;
79126;SDS011;68528;48.814;8.904;2023-09-12T02:11:06;13.65;;;7.00;;
79126;SDS011;68528;48.814;8.904;2023-09-12T02:13:32;13.98;;;7.40;;
79126;SDS011;68528;48.814;8.904;2023-09-12T02:16:01;10.80;;;6.10;;
79126;SDS011;68528;48.814;8.904;2023-09-12T02:18:29;8.77;;;6.22;;
79126;SDS011;68528;48.814;8.904;2023-09-12T02:20:55;8.48;;;6.80;;
79126;SDS011;68528;48.814;8.904;2023-09-12T02:23:23;10.02;;;6.28;;
79126;SDS011;68528;48.814;8.904;2023-09-12T02:25:48;8.68;;;5.60;;
79126;SDS011;68528;48.814;8.904;2023-09-12T02:28:13;18.92;;;8.85;;
79126;SDS011;68528;48.814;8.904;2023-09-12T02:30:39;9.55;;;6.55;;
79126;SDS011;68528;48.814;8.904;2023-09-12T02:33:16;10.88;;;6.72;;
79126;SDS011;68528;48.814;8.904;2023-09-12T02:36:03;9.27;;;6.63;;
79126;SDS011;68528;48.814;8.904;2023-09-12T02:38:29;10.18;;;6.15;;
79126;SDS011;68528;48.814;8.904;2023-09-12T02:41:30;8.73;;;6.40;;
79126;SDS011;68528;48.814;8.904;2023-09-12T02:43:55;10.85;;;7.45;;
79126;SDS011;68528;48.814;8.904;2023-09-12T02:46:21;11.13;;;6.95;;
79126;SDS011;68528;48.814;8.904;2023-09-12T02:48:47;8.98;;;6.78;;
79126;SDS011;68528;48.814;8.904;2023-09-12T02:51:12;11.07;;;6.57;;
79126;SDS011;68528;48.814;8.904;2023-09-12T02:53:37;10.95;;;6.50;;
79126;SDS011;68528;48.814;8.904;2023-09-12T02:56:03;10.35;;;6.78;;
79126;SDS011;68528;48.814;8.904;2023-09-12T02:58:29;8.88;;;6.25;;
79126;SDS011;68528;48.814;8.904;2023-09-12T03:00:55;10.45;;;6.43;;
79126;SDS011;68528;48.814;8.904;2023-09-12T03:03:22;9.32;;;7.10;;
79126;SDS011;68528;48.814;8.904;2023-09-12T03:05:47;11.30;;;6.68;;
79126;SDS011;68528;48.814;8.904;2023-09-12T03:11:18;12.48;;;6.45;;
79126;SDS011;68528;48.814;8.904;2023-09-12T03:13:45;12.20;;;7.03;;
79126;SDS011;68528;48.814;8.904;2023-09-12T03:16:11;9.85;;;6.65;;
79126;SDS011;68528;48.814;8.904;2023-09-12T03:18:38;16.77;;;6.30;;
79126;SDS011;68528;48.814;8.904;2023-09-12T03:21:03;11.38;;;7.15;;
79126;SDS011;68528;48.814;8.904;2023-09-12T03:23:29;10.25;;;7.07;;
79126;SDS011;68528;48.814;8.904;2023-09-12T03:25:55;12.23;;;7.18;;
79126;SDS011;68528;48.814;8.904;2023-09-12T03:28:20;9.15;;;6.65;;
79126;SDS011;68528;48.814;8.904;2023-09-12T03:30:46;12.02;;;5.88;;
79126;SDS011;68528;48.814;8.904;2023-09-12T03:33:11;11.88;;;6.78;;
79126;SDS011;68528;48.814;8.904;2023-09-12T03:35:38;10.77;;;6.75;;
79126;SDS011;68528;48.814;8.904;2023-09-12T03:38:03;12.23;;;6.80;;
79126;SDS011;68528;48.814;8.904;2023-09-12T03:40:29;11.23;;;6.38;;
79126;SDS011;68528;48.814;8.904;2023-09-12T03:42:58;9.27;;;6.63;;
79126;SDS011;68528;48.814;8.904;2023-09-12T03:45:23;9.05;;;6.72;;
79126;SDS011;68528;48.814;8.904;2023-09-12T03:47:50;9.73;;;6.70;;
79126;SDS011;68528;48.814;8.904;2023-09-12T03:50:16;13.07;;;6.72;;
79126;SDS011;68528;48.814;8.904;2023-09-12T03:53:10;13.93;;;7.28;;
79126;SDS011;68528;48.814;8.904;2023-09-12T03:55:36;13.63;;;7.10;;
79126;SDS011;68528;48.814;8.904;2023-09-12T03:58:02;8.32;;;6.30;;
79126;SDS011;68528;48.814;8.904;2023-09-12T04:00:27;10.65;;;6.95;;
79126;SDS011;68528;48.814;8.904;2023-09-12T04:02:54;8.15;;;6.38;;
79126;SDS011;68528;48.814;8.904;2023-09-12T04:05:20;11.02;;;6.95;;
79126;SDS011;68528;48.814;8.904;2023-09-12T04:08:05;10.68;;;6.63;;
79126;SDS011;68528;48.814;8.904;2023-09-12T04:10:35;13.65;;;6.70;;
79126;SDS011;68528;48.814;8.904;2023-09-12T04:13:01;11.15;;;6.72;;
79126;SDS011;68528;48.814;8.904;2023-09-12T04:15:26;10.05;;;6.32;;
79126;SDS011;68528;48.814;8.904;2023-09-12T04:17:51;17.53;;;7.27;;
79126;SDS011;68528;48.814;8.904;2023-09-12T04:20:18;9.38;;;6.88;;
79126;SDS011;68528;48.814;8.904;2023-09-12T04:22:43;8.35;;;5.85;;
79126;SDS011;68528;48.814;8.904;2023-09-12T04:25:09;10.38;;;6.75;;
79126;SDS011;68528;48.814;8.904;2023-09-12T04:27:35;14.52;;;7.43;;
79126;SDS011;68528;48.814;8.904;2023-09-12T04:30:01;10.27;;;6.80;;
79126;SDS011;68528;48.814;8.904;2023-09-12T04:32:30;9.60;;;5.90;;
79126;SDS011;68528;48.814;8.904;2023-09-12T04:35:11;11.20;;;6.47;;
79126;SDS011;68528;48.814;8.904;2023-09-12T04:37:37;9.40;;;6.43;;
79126;SDS011;68528;48.814;8.904;2023-09-12T04:40:02;8.65;;;6.20;;
79126;SDS011;68528;48.814;8.904;2023-09-12T04:42:32;12.50;;;6.82;;
79126;SDS011;68528;48.814;8.904;2023-09-12T04:45:10;11.88;;;6.55;;
79126;SDS011;68528;48.814;8.904;2023-09-12T04:47:44;8.48;;;6.65;;
79126;SDS011;68528;48.814;8.904;2023-09-12T04:50:29;9.85;;;6.00;;
79126;SDS011;68528;48.814;8.904;2023-09-12T04:52:54;11.77;;;6.80;;
79126;SDS011;68528;48.814;8.904;2023-09-12T04:55:58;9.45;;;6.25;;
79126;SDS011;68528;48.814;8.904;2023-09-12T04:58:24;10.80;;;6.47;;
79126;SDS011;68528;48.814;8.904;2023-09-12T05:00:50;10.93;;;6.13;;
79126;SDS011;68528;48.814;8.904;2023-09-12T05:03:38;12.90;;;7.18;;
79126;SDS011;68528;48.814;8.904;2023-09-12T05:06:28;10.82;;;6.32;;
79126;SDS011;68528;48.814;8.904;2023-09-12T05:08:54;9.65;;;6.65;;
79126;SDS011;68528;48.814;8.904;2023-09-12T05:11:19;9.70;;;6.50;;
79126;SDS011;68528;48.814;8.904;2023-09-12T05:13:47;13.27;;;6.75;;
79126;SDS011;68528;48.814;8.904;2023-09-12T05:16:18;9.80;;;6.75;;
79126;SDS011;68528;48.814;8.904;2023-09-12T05:18:44;14.18;;;6.28;;
79126;SDS011;68528;48.814;8.904;2023-09-12T05:21:19;18.02;;;6.28;;
79126;SDS011;68528;48.814;8.904;2023-09-12T05:23:44;15.73;;;7.30;;
79126;SDS011;68528;48.814;8.904;2023-09-12T05:26:12;10.27;;;6.97;;
79126;SDS011;68528;48.814;8.904;2023-09-12T05:28:37;11.55;;;6.43;;
79126;SDS011;68528;48.814;8.904;2023-09-12T05:31:03;10.35;;;6.43;;
79126;SDS011;68528;48.814;8.904;2023-09-12T05:33:29;11.55;;;6.18;;
79126;SDS011;68528;48.814;8.904;2023-09-12T05:35:54;11.93;;;7.28;;
79126;SDS011;68528;48.814;8.904;2023-09-12T05:38:19;10.17;;;6.00;;
79126;SDS011;68528;48.814;8.904;2023-09-12T05:40:45;8.68;;;5.80;;
79126;SDS011;68528;48.814;8.904;2023-09-12T05:43:11;10.43;;;6.50;;
79126;SDS011;68528;48.814;8.904;2023-09-12T05:45:37;8.20;;;6.53;;
79126;SDS011;68528;48.814;8.904;2023-09-12T05:48:02;11.55;;;6.47;;
79126;SDS011;68528;48.814;8.904;2023-09-12T05:50:29;9.38;;;6.43;;
79126;SDS011;68528;48.814;8.904;2023-09-12T05:52:55;14.70;;;6.25;;
79126;SDS011;68528;48.814;8.904;2023-09-12T05:55:20;10.80;;;6.45;;
79126;SDS011;68528;48.814;8.904;2023-09-12T05:57:48;10.48;;;6.97;;
79126;SDS011;68528;48.814;8.904;2023-09-12T06:00:17;11.80;;;7.03;;
79126;SDS011;68528;48.814;8.904;2023-09-12T06:02:43;11.13;;;6.43;;
79126;SDS011;68528;48.814;8.904;2023-09-12T06:05:08;11.60;;;6.20;;
79126;SDS011;68528;48.814;8.904;2023-09-12T06:07:35;13.10;;;6.40;;
79126;SDS011;68528;48.814;8.904;2023-09-12T06:10:01;10.60;;;6.55;;
79126;SDS011;68528;48.814;8.904;2023-09-12T06:12:28;10.63;;;6.32;;
79126;SDS011;68528;48.814;8.904;2023-09-12T06:14:53;11.03;;;6.77;;
79126;SDS011;68528;48.814;8.904;2023-09-12T06:17:21;13.85;;;6.55;;
79126;SDS011;68528;48.814;8.904;2023-09-12T06:19:47;12.15;;;5.97;;
79126;SDS011;68528;48.814;8.904;2023-09-12T06:22:16;10.73;;;6.90;;
79126;SDS011;68528;48.814;8.904;2023-09-12T06:24:43;9.60;;;6.18;;
79126;SDS011;68528;48.814;8.904;2023-09-12T06:27:29;11.55;;;6.78;;
79126;SDS011;68528;48.814;8.904;2023-09-12T06:29:55;9.85;;;6.03;;
79126;SDS011;68528;48.814;8.904;2023-09-12T06:32:21;11.63;;;7.30;;
79126;SDS011;68528;48.814;8.904;2023-09-12T06:34:46;12.00;;;6.88;;
79126;SDS011;68528;48.814;8.904;2023-09-12T06:37:13;11.20;;;6.72;;
79126;SDS011;68528;48.814;8.904;2023-09-12T06:39:38;10.40;;;7.22;;
79126;SDS011;68528;48.814;8.904;2023-09-12T06:42:04;11.32;;;6.28;;
79126;SDS011;68528;48.814;8.904;2023-09-12T06:44:29;10.63;;;6.43;;
79126;SDS011;68528;48.814;8.904;2023-09-12T06:46:55;15.68;;;6.90;;
79126;SDS011;68528;48.814;8.904;2023-09-12T06:49:21;12.38;;;6.72;;
79126;SDS011;68528;48.814;8.904;2023-09-12T06:51:46;13.98;;;6.43;;
79126;SDS011;68528;48.814;8.904;2023-09-12T06:54:11;14.90;;;6.45;;
79126;SDS011;68528;48.814;8.904;2023-09-12T06:56:37;15.27;;;7.03;;
79126;SDS011;68528;48.814;8.904;2023-09-12T06:59:04;16.13;;;7.03;;
79126;SDS011;68528;48.814;8.904;2023-09-12T07:01:32;17.05;;;6.72;;
79126;SDS011;68528;48.814;8.904;2023-09-12T07:04:00;22.90;;;7.22;;
79126;SDS011;68528;48.814;8.904;2023-09-12T07:06:26;51.97;;;9.63;;
79126;SDS011;68528;48.814;8.904;2023-09-12T07:08:51;48.50;;;8.45;;
79126;SDS011;68528;48.814;8.904;2023-09-12T07:11:17;44.88;;;9.95;;
79126;SDS011;68528;48.814;8.904;2023-09-12T07:13:44;49.15;;;10.43;;
79126;SDS011;68528;48.814;8.904;2023-09-12T07:16:12;50.55;;;9.80;;
79126;SDS011;68528;48.814;8.904;2023-09-12T07:18:38;25.23;;;6.93;;
79126;SDS011;68528;48.814;8.904;2023-09-12T07:21:03;21.10;;;7.45;;
79126;SDS011;68528;48.814;8.904;2023-09-12T07:23:30;12.40;;;6.20;;
79126;SDS011;68528;48.814;8.904;2023-09-12T07:25:57;16.20;;;6.78;;
79126;SDS011;68528;48.814;8.904;2023-09-12T07:28:29;18.88;;;6.60;;
79126;SDS011;68528;48.814;8.904;2023-09-12T07:31:30;17.15;;;6.25;;
79126;SDS011;68528;48.814;8.904;2023-09-12T07:33:56;9.07;;;5.70;;
79126;SDS011;68528;48.814;8.904;2023-09-12T07:36:22;10.48;;;6.40;;
79126;SDS011;68528;48.814;8.904;2023-09-12T07:38:47;10.52;;;5.28;;
79126;SDS011;68528;48.814;8.904;2023-09-12T07:41:13;7.93;;;5.80;;
79126;SDS011;68528;48.814;8.904;2023-09-12T07:43:38;8.25;;;5.63;;
79126;SDS011;68528;48.814;8.904;2023-09-12T07:46:05;9.63;;;5.60;;
79126;SDS011;68528;48.814;8.904;2023-09-12T07:48:30;8.30;;;5.57;;
79126;SDS011;68528;48.814;8.904;2023-09-12T07:50:56;9.15;;;6.25;;
79126;SDS011;68528;48.814;8.904;2023-09-12T07:53:21;7.93;;;5.35;;
79126;SDS011;68528;48.814;8.904;2023-09-12T07:55:47;10.20;;;5.78;;
79126;SDS011;68528;48.814;8.904;2023-09-12T07:58:14;10.40;;;5.95;;
79126;SDS011;68528;48.814;8.904;2023-09-12T08:00:40;9.50;;;5.88;;
79126;SDS011;68528;48.814;8.904;2023-09-12T08:03:06;6.97;;;5.47;;
79126;SDS011;68528;48.814;8.904;2023-09-12T08:05:59;9.60;;;5.85;;
79126;SDS011;68528;48.814;8.904;2023-09-12T08:08:25;8.13;;;5.80;;
79126;SDS011;68528;48.814;8.904;2023-09-12T08:10:53;9.10;;;6.20;;
79126;SDS011;68528;48.814;8.904;2023-09-12T08:13:18;7.53;;;5.60;;
79126;SDS011;68528;48.814;8.904;2023-09-12T08:15:44;9.77;;;6.30;;
79126;SDS011;68528;48.814;8.904;2023-09-12T08:18:10;10.35;;;6.32;;
79126;SDS011;68528;48.814;8.904;2023-09-12T08:20:35;10.63;;;6.13;;
79126;SDS011;68528;48.814;8.904;2023-09-12T08:23:01;9.30;;;5.55;;
79126;SDS011;68528;48.814;8.904;2023-09-12T08:25:27;11.65;;;6.22;;
79126;SDS011;68528;48.814;8.904;2023-09-12T08:28:00;7.28;;;5.82;;
79126;SDS011;68528;48.814;8.904;2023-09-12T08:33:53;9.05;;;5.30;;
79126;SDS011;68528;48.814;8.904;2023-09-12T08:36:59;10.13;;;5.20;;
79126;SDS011;68528;48.814;8.904;2023-09-12T08:39:27;7.57;;;5.95;;
79126;SDS011;68528;48.814;8.904;2023-09-12T08:42:20;9.43;;;5.65;;
79126;SDS011;68528;48.814;8.904;2023-09-12T08:44:54;10.40;;;5.80;;
79126;SDS011;68528;48.814;8.904;2023-09-12T08:47:19;11.60;;;5.70;;
79126;SDS011;68528;48.814;8.904;2023-09-12T08:49:48;9.18;;;5.45;;
79126;SDS011;68528;48.814;8.904;2023-09-12T08:52:13;7.80;;;5.28;;
79126;SDS011;68528;48.814;8.904;2023-09-12T08:54:39;9.48;;;6.40;;
79126;SDS011;68528;48.814;8.904;2023-09-12T08:57:05;9.73;;;5.90;;
79126;SDS011;68528;48.814;8.904;2023-09-12T08:59:33;6.32;;;5.00;;
79126;SDS011;68528;48.814;8.904;2023-09-12T09:05:36;7.18;;;5.20;;
79126;SDS011;68528;48.814;8.904;2023-09-12T09:12:24;10.63;;;5.10;;
79126;SDS011;68528;48.814;8.904;2023-09-12T09:14:55;9.40;;;5.40;;
79126;SDS011;68528;48.814;8.904;2023-09-12T09:17:20;10.05;;;5.50;;
79126;SDS011;68528;48.814;8.904;2023-09-12T09:19:47;6.90;;;5.05;;
79126;SDS011;68528;48.814;8.904;2023-09-12T09:22:13;6.80;;;4.93;;
79126;SDS011;68528;48.814;8.904;2023-09-12T09:24:44;11.52;;;5.05;;
79126;SDS011;68528;48.814;8.904;2023-09-12T09:27:31;6.18;;;4.80;;
79126;SDS011;68528;48.814;8.904;2023-09-12T09:33:25;7.90;;;4.93;;
79126;SDS011;68528;48.814;8.904;2023-09-12T09:36:01;7.40;;;4.43;;
79126;SDS011;68528;48.814;8.904;2023-09-12T09:38:29;7.25;;;5.20;;
79126;SDS011;68528;48.814;8.904;2023-09-12T09:40:56;9.60;;;5.15;;
79126;SDS011;68528;48.814;8.904;2023-09-12T09:47:03;8.80;;;5.25;;
79126;SDS011;68528;48.814;8.904;2023-09-12T09:49:33;12.48;;;5.15;;
79126;SDS011;68528;48.814;8.904;2023-09-12T09:52:03;9.73;;;5.45;;
79126;SDS011;68528;48.814;8.904;2023-09-12T09:55:25;8.98;;;5.35;;
79126;SDS011;68528;48.814;8.904;2023-09-12T09:57:51;10.15;;;6.00;;
79126;SDS011;68528;48.814;8.904;2023-09-12T10:00:20;6.75;;;5.05;;
79126;SDS011;68528;48.814;8.904;2023-09-12T10:02:47;9.45;;;5.63;;
79126;SDS011;68528;48.814;8.904;2023-09-12T10:05:16;7.53;;;4.82;;
79126;SDS011;68528;48.814;8.904;2023-09-12T10:07:42;10.27;;;5.28;;
79126;SDS011;68528;48.814;8.904;2023-09-12T10:10:58;9.07;;;4.75;;
79126;SDS011;68528;48.814;8.904;2023-09-12T10:13:25;5.95;;;4.72;;
79126;SDS011;68528;48.814;8.904;2023-09-12T10:15:57;7.32;;;5.32;;
79126;SDS011;68528;48.814;8.904;2023-09-12T10:18:25;7.78;;;4.85;;
79126;SDS011;68528;48.814;8.904;2023-09-12T10:23:34;8.60;;;5.47;;
79126;SDS011;68528;48.814;8.904;2023-09-12T10:26:07;8.30;;;5.25;;
79126;SDS011;68528;48.814;8.904;2023-09-12T10:28:39;8.55;;;5.43;;
79126;SDS011;68528;48.814;8.904;2023-09-12T10:34:28;12.23;;;5.70;;
79126;SDS011;68528;48.814;8.904;2023-09-12T10:37:10;9.25;;;5.22;;
79126;SDS011;68528;48.814;8.904;2023-09-12T10:39:40;9.57;;;5.88;;
79126;SDS011;68528;48.814;8.904;2023-09-12T10:42:08;9.13;;;5.35;;
79126;SDS011;68528;48.814;8.904;2023-09-12T10:44:34;9.85;;;5.57;;
79126;SDS011;68528;48.814;8.904;2023-09-12T10:47:00;8.23;;;5.60;;
79126;SDS011;68528;48.814;8.904;2023-09-12T10:49:26;11.30;;;5.97;;
79126;SDS011;68528;48.814;8.904;2023-09-12T10:51:53;10.95;;;5.75;;
79126;SDS011;68528;48.814;8.904;2023-09-12T10:57:10;12.98;;;5.20;;
79126;SDS011;68528;48.814;8.904;2023-09-12T11:00:07;10.80;;;6.15;;
79126;SDS011;68528;48.814;8.904;2023-09-12T11:04:55;11.77;;;5.53;;
79126;SDS011;68528;48.814;8.904;2023-09-12T11:10:31;13.02;;;5.93;;
79126;SDS011;68528;48.814;8.904;2023-09-12T11:12:57;9.75;;;5.40;;
79126;SDS011;68528;48.814;8.904;2023-09-12T11:15:26;7.00;;;5.53;;
79126;SDS011;68528;48.814;8.904;2023-09-12T11:18:03;9.60;;;5.40;;
79126;SDS011;68528;48.814;8.904;2023-09-12T11:23:18;10.27;;;5.70;;
79126;SDS011;68528;48.814;8.904;2023-09-12T11:25:44;9.55;;;5.28;;
79126;SDS011;68528;48.814;8.904;2023-09-12T11:28:10;10.65;;;5.60;;
79126;SDS011;68528;48.814;8.904;2023-09-12T11:30:38;9.65;;;5.80;;
79126;SDS011;68528;48.814;8.904;2023-09-12T11:33:41;7.63;;;5.38;;
79126;SDS011;68528;48.814;8.904;2023-09-12T11:36:07;8.20;;;5.47;;
79126;SDS011;68528;48.814;8.904;2023-09-12T11:38:38;9.98;;;6.03;;
79126;SDS011;68528;48.814;8.904;2023-09-12T11:41:04;9.30;;;6.05;;
79126;SDS011;68528;48.814;8.904;2023-09-12T11:43:29;10.27;;;5.45;;
79126;SDS011;68528;48.814;8.904;2023-09-12T11:45:55;8.55;;;5.82;;
79126;SDS011;68528;48.814;8.904;2023-09-12T11:48:28;8.88;;;5.13;;
79126;SDS011;68528;48.814;8.904;2023-09-12T11:50:56;9.77;;;7.43;;
79126;SDS011;68528;48.814;8.904;2023-09-12T11:53:27;17.27;;;6.75;;
79126;SDS011;68528;48.814;8.904;2023-09-12T11:55:58;11.02;;;6.43;;
79126;SDS011;68528;48.814;8.904;2023-09-12T11:58:26;11.07;;;7.10;;
79126;SDS011;68528;48.814;8.904;2023-09-12T12:00:54;9.85;;;7.22;;
79126;SDS011;68528;48.814;8.904;2023-09-12T12:03:22;18.58;;;7.30;;
79126;SDS011;68528;48.814;8.904;2023-09-12T12:05:49;19.63;;;8.07;;
79126;SDS011;68528;48.814;8.904;2023-09-12T12:08:17;16.33;;;8.50;;
79126;SDS011;68528;48.814;8.904;2023-09-12T12:10:43;15.88;;;8.73;;
79126;SDS011;68528;48.814;8.904;2023-09-12T12:13:17;15.98;;;8.15;;
79126;SDS011;68528;48.814;8.904;2023-09-12T12:15:43;11.70;;;7.75;;
79126;SDS011;68528;48.814;8.904;2023-09-12T12:18:09;17.73;;;8.18;;
79126;SDS011;68528;48.814;8.904;2023-09-12T12:20:35;24.02;;;11.55;;
79126;SDS011;68528;48.814;8.904;2023-09-12T12:23:00;18.13;;;11.15;;
79126;SDS011;68528;48.814;8.904;2023-09-12T12:25:31;15.95;;;8.68;;
79126;SDS011;68528;48.814;8.904;2023-09-12T12:28:00;18.10;;;8.48;;
79126;SDS011;68528;48.814;8.904;2023-09-12T12:30:29;14.18;;;8.40;;
79126;SDS011;68528;48.814;8.904;2023-09-12T12:32:56;18.30;;;11.88;;
79126;SDS011;68528;48.814;8.904;2023-09-12T12:35:26;19.58;;;12.15;;
79126;SDS011;68528;48.814;8.904;2023-09-12T12:37:54;16.35;;;10.00;;
79126;SDS011;68528;48.814;8.904;2023-09-12T12:40:21;14.93;;;9.38;;
79126;SDS011;68528;48.814;8.904;2023-09-12T12:42:49;19.80;;;10.27;;
79126;SDS011;68528;48.814;8.904;2023-09-12T12:45:16;18.67;;;9.00;;
79126;SDS011;68528;48.814;8.904;2023-09-12T12:47:43;17.77;;;9.98;;
79126;SDS011;68528;48.814;8.904;2023-09-12T12:50:14;16.42;;;10.23;;
79126;SDS011;68528;48.814;8.904;2023-09-12T12:52:41;18.20;;;9.82;;
79126;SDS011;68528;48.814;8.904;2023-09-12T12:55:27;14.52;;;8.98;;
79126;SDS011;68528;48.814;8.904;2023-09-12T12:58:12;16.48;;;8.40;;
79126;SDS011;68528;48.814;8.904;2023-09-12T13:00:38;14.13;;;9.20;;
79126;SDS011;68528;48.814;8.904;2023-09-12T13:03:04;24.65;;;12.55;;
79126;SDS011;68528;48.814;8.904;2023-09-12T13:05:31;24.77;;;12.18;;
79126;SDS011;68528;48.814;8.904;2023-09-12T13:07:57;21.83;;;11.68;;
79126;SDS011;68528;48.814;8.904;2023-09-12T13:10:22;16.70;;;9.90;;
79126;SDS011;68528;48.814;8.904;2023-09-12T13:12:48;15.00;;;7.68;;
79126;SDS011;68528;48.814;8.904;2023-09-12T13:15:15;14.27;;;9.52;;
79126;SDS011;68528;48.814;8.904;2023-09-12T13:17:42;15.20;;;9.85;;
79126;SDS011;68528;48.814;8.904;2023-09-12T13:20:08;15.05;;;9.80;;
79126;SDS011;68528;48.814;8.904;2023-09-12T13:22:38;14.00;;;7.95;;
79126;SDS011;68528;48.814;8.904;2023-09-12T13:25:04;14.57;;;8.50;;
79126;SDS011;68528;48.814;8.904;2023-09-12T13:27:30;16.45;;;9.50;;
79126;SDS011;68528;48.814;8.904;2023-09-12T13:29:56;13.27;;;6.90;;
79126;SDS011;68528;48.814;8.904;2023-09-12T13:32:21;13.30;;;7.55;;
79126;SDS011;68528;48.814;8.904;2023-09-12T13:34:47;10.40;;;7.65;;
79126;SDS011;68528;48.814;8.904;2023-09-12T13:37:12;7.68;;;6.15;;
79126;SDS011;68528;48.814;8.904;2023-09-12T13:39:38;10.85;;;6.50;;
79126;SDS011;68528;48.814;8.904;2023-09-12T13:42:06;10.43;;;6.18;;
79126;SDS011;68528;48.814;8.904;2023-09-12T13:44:33;9.48;;;7.22;;
79126;SDS011;68528;48.814;8.904;2023-09-12T13:46:58;9.20;;;7.25;;
79126;SDS011;68528;48.814;8.904;2023-09-12T13:49:24;10.98;;;6.00;;
79126;SDS011;68528;48.814;8.904;2023-09-12T13:51:49;13.18;;;6.13;;
79126;SDS011;68528;48.814;8.904;2023-09-12T13:54:15;12.13;;;7.10;;
79126;SDS011;68528;48.814;8.904;2023-09-12T13:56:41;8.57;;;6.50;;
79126;SDS011;68528;48.814;8.904;2023-09-12T13:59:07;13.15;;;6.95;;
79126;SDS011;68528;48.814;8.904;2023-09-12T14:01:32;10.60;;;6.32;;
79126;SDS011;68528;48.814;8.904;2023-09-12T14:03:58;9.65;;;5.90;;
79126;SDS011;68528;48.814;8.904;2023-09-12T14:06:24;7.75;;;6.00;;
79126;SDS011;68528;48.814;8.904;2023-09-12T14:08:51;7.40;;;6.05;;
79126;SDS011;68528;48.814;8.904;2023-09-12T14:11:17;10.57;;;5.75;;
79126;SDS011;68528;48.814;8.904;2023-09-12T14:13:42;9.85;;;5.25;;
79126;SDS011;68528;48.814;8.904;2023-09-12T14:16:08;8.32;;;5.32;;
79126;SDS011;68528;48.814;8.904;2023-09-12T14:18:33;8.63;;;5.20;;
79126;SDS011;68528;48.814;8.904;2023-09-12T14:21:00;8.25;;;5.55;;
79126;SDS011;68528;48.814;8.904;2023-09-12T14:23:29;7.50;;;5.15;;
79126;SDS011;68528;48.814;8.904;2023-09-12T14:25:55;10.27;;;6.03;;
79126;SDS011;68528;48.814;8.904;2023-09-12T14:28:21;7.38;;;5.20;;
79126;SDS011;68528;48.814;8.904;2023-09-12T14:30:47;9.10;;;5.03;;
79126;SDS011;68528;48.814;8.904;2023-09-12T14:33:14;8.48;;;5.80;;
79126;SDS011;68528;48.814;8.904;2023-09-12T14:35:40;9.43;;;5.55;;
79126;SDS011;68528;48.814;8.904;2023-09-12T14:38:09;12.82;;;6.35;;
79126;SDS011;68528;48.814;8.904;2023-09-12T14:40:34;7.80;;;5.40;;
79126;SDS011;68528;48.814;8.904;2023-09-12T14:43:00;8.65;;;5.47;;
79126;SDS011;68528;48.814;8.904;2023-09-12T14:45:28;10.20;;;5.70;;
79126;SDS011;68528;48.814;8.904;2023-09-12T14:47:54;8.82;;;5.38;;
79126;SDS011;68528;48.814;8.904;2023-09-12T14:50:22;9.55;;;5.45;;
79126;SDS011;68528;48.814;8.904;2023-09-12T14:52:54;10.60;;;5.50;;
79126;SDS011;68528;48.814;8.904;2023-09-12T14:55:19;11.65;;;5.47;;
79126;SDS011;68528;48.814;8.904;2023-09-12T14:57:51;6.95;;;5.45;;
79126;SDS011;68528;48.814;8.904;2023-09-12T15:00:20;11.48;;;6.32;;
79126;SDS011;68528;48.814;8.904;2023-09-12T15:02:46;7.97;;;5.38;;
79126;SDS011;68528;48.814;8.904;2023-09-12T15:05:11;8.35;;;5.47;;
79126;SDS011;68528;48.814;8.904;2023-09-12T15:07:37;7.05;;;5.75;;
79126;SDS011;68528;48.814;8.904;2023-09-12T15:10:03;7.65;;;5.75;;
79126;SDS011;68528;48.814;8.904;2023-09-12T15:12:30;7.68;;;5.57;;
79126;SDS011;68528;48.814;8.904;2023-09-12T15:14:56;7.82;;;5.30;;
79126;SDS011;68528;48.814;8.904;2023-09-12T15:17:21;8.80;;;5.05;;
79126;SDS011;68528;48.814;8.904;2023-09-12T15:19:47;6.88;;;5.57;;
79126;SDS011;68528;48.814;8.904;2023-09-12T15:22:12;8.82;;;5.28;;
79126;SDS011;68528;48.814;8.904;2023-09-12T15:24:39;8.02;;;6.35;;
79126;SDS011;68528;48.814;8.904;2023-09-12T15:27:07;8.95;;;6.00;;
79126;SDS011;68528;48.814;8.904;2023-09-12T15:29:32;10.25;;;5.82;;
79126;SDS011;68528;48.814;8.904;2023-09-12T15:32:09;12.75;;;5.80;;
79126;SDS011;68528;48.814;8.904;2023-09-12T15:34:35;8.00;;;5.87;;